createdAt,value
2022-08-02T00:01:02.966Z,1.17
2022-08-02T00:03:30.151Z,1.00
2022-08-02T00:05:57.840Z,1.00
2022-08-02T00:08:24.693Z,0.77
2022-08-02T00:10:51.629Z,1.02
2022-08-02T00:13:18.498Z,1.15
2022-08-02T00:15:45.251Z,1.10
2022-08-02T00:18:12.145Z,0.90
2022-08-02T00:20:39.116Z,1.27
2022-08-02T00:23:06.041Z,1.20
2022-08-02T00:25:32.820Z,1.20
2022-08-02T00:27:59.733Z,1.00
2022-08-02T00:30:26.589Z,1.38
2022-08-02T00:32:53.386Z,1.17
2022-08-02T00:35:20.372Z,1.10
2022-08-02T00:37:47.181Z,1.38
2022-08-02T00:40:14.237Z,1.00
2022-08-02T00:42:41.290Z,1.00
2022-08-02T00:45:09.041Z,0.93
2022-08-02T00:47:36.292Z,1.63
2022-08-02T00:50:03.512Z,1.20
2022-08-02T00:52:30.373Z,0.82
2022-08-02T00:54:57.201Z,0.95
2022-08-02T00:57:24.057Z,0.80
2022-08-02T00:59:50.883Z,1.05
2022-08-02T01:02:17.929Z,1.15
2022-08-02T01:04:45.598Z,1.00
2022-08-02T01:07:14.414Z,1.30
2022-08-02T01:09:45.680Z,1.08
2022-08-02T01:12:13.695Z,0.90
2022-08-02T01:14:46.815Z,1.33
2022-08-02T01:17:32.513Z,0.82
2022-08-02T01:20:15.137Z,0.93
2022-08-02T01:23:03.251Z,1.15
2022-08-02T01:25:45.201Z,1.17
2022-08-02T01:28:38.022Z,1.23
2022-08-02T01:31:29.616Z,1.05
2022-08-02T01:34:20.677Z,1.08
2022-08-02T01:36:58.731Z,1.08
2022-08-02T01:39:32.369Z,0.60
2022-08-02T01:42:05.379Z,1.00
2022-08-02T01:44:36.052Z,1.42
2022-08-02T01:47:07.668Z,1.00
2022-08-02T01:49:35.871Z,0.90
2022-08-02T01:52:22.455Z,1.10
2022-08-02T01:54:56.053Z,1.20
2022-08-02T01:57:24.576Z,0.77
2022-08-02T01:59:53.482Z,1.27
2022-08-02T02:02:21.462Z,0.88
2022-08-02T02:04:50.306Z,1.00
2022-08-02T02:07:18.744Z,0.80
2022-08-02T02:09:50.767Z,1.48
2022-08-02T02:12:20.513Z,0.93
2022-08-02T02:14:51.671Z,0.85
2022-08-02T02:17:50.751Z,0.88
2022-08-02T02:20:17.599Z,0.70
2022-08-02T02:22:45.446Z,1.48
2022-08-02T02:25:19.128Z,1.58
2022-08-02T02:28:02.220Z,0.82
2022-08-02T02:30:34.199Z,0.70
2022-08-02T02:33:06.153Z,0.50
2022-08-02T02:35:37.015Z,1.02
2022-08-02T02:38:09.516Z,1.17
2022-08-02T02:43:04.948Z,1.08
2022-08-02T02:45:33.392Z,0.90
2022-08-02T02:48:02.477Z,1.10
2022-08-02T02:50:30.528Z,1.00
2022-08-02T02:53:01.899Z,1.20
2022-08-02T02:55:29.453Z,1.05
2022-08-02T02:57:56.911Z,1.30
2022-08-02T03:00:43.808Z,1.17
2022-08-02T03:03:11.318Z,1.38
2022-08-02T03:05:38.479Z,1.60
2022-08-02T03:08:05.448Z,1.00
2022-08-02T03:10:33.046Z,0.95
2022-08-02T03:13:03.974Z,1.08
2022-08-02T03:15:32.011Z,0.98
2022-08-02T03:17:59.297Z,1.35
2022-08-02T03:20:26.140Z,1.45
2022-08-02T03:22:52.958Z,1.15
2022-08-02T03:25:20.423Z,1.23
2022-08-02T03:27:47.476Z,1.17
2022-08-02T03:30:25.131Z,1.00
2022-08-02T03:32:52.030Z,1.45
2022-08-02T03:35:24.136Z,1.25
2022-08-02T03:40:19.813Z,1.40
2022-08-02T03:42:47.872Z,1.00
2022-08-02T03:45:15.109Z,1.88
2022-08-02T03:47:43.816Z,0.85
2022-08-02T03:50:14.989Z,1.23
2022-08-02T03:52:43.497Z,1.08
2022-08-02T03:55:13.245Z,1.05
2022-08-02T03:57:41.656Z,1.40
2022-08-02T04:00:18.072Z,1.20
2022-08-02T04:02:45.012Z,1.98
2022-08-02T04:05:12.116Z,0.68
2022-08-02T04:08:02.729Z,0.90
2022-08-02T04:10:26.801Z,0.70
2022-08-02T04:12:54.153Z,1.20
2022-08-02T04:15:23.100Z,1.60
2022-08-02T04:17:59.008Z,1.23
2022-08-02T04:20:35.660Z,1.10
2022-08-02T04:23:06.587Z,1.15
2022-08-02T04:25:40.340Z,1.42
2022-08-02T04:28:17.430Z,2.05
2022-08-02T04:30:50.067Z,1.20
2022-08-02T04:33:17.055Z,0.93
2022-08-02T04:35:45.234Z,1.38
2022-08-02T04:38:15.767Z,1.23
2022-08-02T04:40:51.903Z,1.27
2022-08-02T04:43:19.752Z,1.30
2022-08-02T04:45:49.656Z,1.02
2022-08-02T04:48:16.597Z,1.60
2022-08-02T04:50:43.507Z,1.35
2022-08-02T04:53:10.362Z,1.42
2022-08-02T04:55:37.414Z,1.83
2022-08-02T04:58:18.348Z,1.30
2022-08-02T05:00:51.259Z,1.55
2022-08-02T05:03:18.383Z,1.77
2022-08-02T05:05:45.170Z,2.05
2022-08-02T05:08:12.020Z,2.10
2022-08-02T05:10:38.926Z,2.35
2022-08-02T05:13:06.230Z,2.35
2022-08-02T05:15:33.565Z,2.00
2022-08-02T05:18:00.470Z,1.98
2022-08-02T05:20:27.700Z,1.60
2022-08-02T05:22:54.673Z,1.70
2022-08-02T05:25:21.722Z,1.95
2022-08-02T05:27:48.621Z,1.40
2022-08-02T05:30:15.704Z,1.55
2022-08-02T05:32:50.853Z,2.47
2022-08-02T05:35:22.191Z,1.80
2022-08-02T05:37:50.421Z,2.38
2022-08-02T05:40:25.647Z,1.52
2022-08-02T05:42:53.538Z,1.83
2022-08-02T05:45:20.523Z,2.33
2022-08-02T05:47:49.764Z,2.15
2022-08-02T05:50:16.579Z,1.75
2022-08-02T05:52:49.581Z,1.38
2022-08-02T05:55:32.059Z,1.83
2022-08-02T05:58:25.322Z,1.88
2022-08-02T06:01:03.352Z,1.13
2022-08-02T06:03:44.106Z,1.92
2022-08-02T06:06:14.051Z,1.45
2022-08-02T06:08:47.989Z,1.30
2022-08-02T06:11:21.132Z,1.92
2022-08-02T06:13:48.497Z,2.38
2022-08-02T06:16:16.041Z,1.98
2022-08-02T06:18:46.429Z,2.55
2022-08-02T06:22:31.692Z,1.83
2022-08-02T06:24:04.106Z,2.20
2022-08-02T06:26:32.099Z,2.15
2022-08-02T06:29:01.776Z,2.10
2022-08-02T06:31:32.227Z,2.85
2022-08-02T06:33:59.573Z,3.05
2022-08-02T06:37:12.946Z,3.35
2022-08-02T06:42:27.323Z,3.08
2022-08-02T06:44:58.128Z,3.13
2022-08-02T06:47:29.524Z,3.00
2022-08-02T06:49:58.351Z,3.30
2022-08-02T06:52:29.657Z,2.65
2022-08-02T06:54:59.120Z,2.90
2022-08-02T06:57:26.303Z,2.42
2022-08-02T06:59:53.282Z,2.47
2022-08-02T07:02:20.523Z,3.00
2022-08-02T07:04:47.799Z,2.33
2022-08-02T07:07:15.545Z,3.28
2022-08-02T07:09:57.709Z,2.72
2022-08-02T07:12:32.282Z,2.63
2022-08-02T07:15:05.149Z,2.63
2022-08-02T07:17:32.389Z,2.40
2022-08-02T07:20:00.566Z,2.28
2022-08-02T07:22:28.408Z,2.22
2022-08-02T07:24:57.808Z,2.70
2022-08-02T07:27:25.448Z,2.40
2022-08-02T07:29:52.566Z,1.75
2022-08-02T07:32:21.730Z,2.53
2022-08-02T07:34:50.404Z,2.03
2022-08-02T07:37:53.286Z,1.70
2022-08-02T07:40:20.180Z,2.17
2022-08-02T07:42:51.997Z,2.08
2022-08-02T07:45:19.845Z,2.10
2022-08-02T07:47:46.925Z,1.75
2022-08-02T07:50:15.946Z,1.45
2022-08-02T07:52:44.730Z,1.73
2022-08-02T07:55:15.036Z,1.60
2022-08-02T07:57:46.154Z,1.95
2022-08-02T08:00:18.114Z,1.90
2022-08-02T08:02:45.755Z,1.55
2022-08-02T08:05:13.745Z,1.60
2022-08-02T08:07:40.836Z,1.70
2022-08-02T08:10:13.553Z,1.70
2022-08-02T08:12:41.187Z,1.52
2022-08-02T08:15:16.304Z,1.90
2022-08-02T08:17:46.523Z,1.70
2022-08-02T08:20:20.527Z,1.83
2022-08-02T08:22:47.887Z,1.23
2022-08-02T08:25:15.280Z,1.40
2022-08-02T08:27:54.783Z,2.08
2022-08-02T08:30:23.470Z,1.00
2022-08-02T08:32:55.758Z,1.75
2022-08-02T08:35:22.790Z,1.45
2022-08-02T08:37:49.679Z,1.60
2022-08-02T08:40:20.414Z,1.70
2022-08-02T08:42:47.396Z,3.50
2022-08-02T08:45:14.274Z,1.83
2022-08-02T08:47:42.952Z,1.90
2022-08-02T08:50:24.784Z,1.67
2022-08-02T08:55:34.734Z,2.13
2022-08-02T08:58:02.552Z,1.52
2022-08-02T09:00:37.729Z,1.77
2022-08-02T09:03:08.652Z,1.80
2022-08-02T09:05:36.807Z,2.15
2022-08-02T09:08:17.170Z,1.40
2022-08-02T09:10:52.514Z,1.63
2022-08-02T09:13:44.933Z,0.98
2022-08-02T09:16:14.785Z,0.90
2022-08-02T09:18:45.598Z,0.95
2022-08-02T09:21:15.012Z,0.70
2022-08-02T09:23:46.631Z,0.80
2022-08-02T09:26:22.437Z,0.43
2022-08-02T09:29:02.689Z,1.02
2022-08-02T09:31:32.448Z,0.98
2022-08-02T09:34:00.442Z,0.60
2022-08-02T09:36:41.678Z,0.85
2022-08-02T09:39:11.425Z,0.95
2022-08-02T09:41:45.799Z,1.48
2022-08-02T09:44:21.529Z,1.00
2022-08-02T09:46:48.584Z,1.40
2022-08-02T09:49:19.918Z,1.10
2022-08-02T09:51:47.374Z,1.73
2022-08-02T09:54:27.181Z,1.58
2022-08-02T09:56:59.932Z,1.60
2022-08-02T09:59:28.739Z,1.50
2022-08-02T10:02:16.863Z,1.80
2022-08-02T10:04:53.495Z,1.58
2022-08-02T10:07:22.640Z,1.85
2022-08-02T10:09:51.447Z,1.70
2022-08-02T10:12:20.177Z,2.35
2022-08-02T10:14:49.548Z,1.52
2022-08-02T10:17:20.300Z,1.90
2022-08-02T10:20:01.765Z,2.08
2022-08-02T10:22:32.230Z,1.98
2022-08-02T10:24:59.357Z,2.00
2022-08-02T10:27:43.233Z,1.75
2022-08-02T10:30:17.255Z,1.50
2022-08-02T10:32:46.296Z,1.60
2022-08-02T10:35:25.893Z,2.05
2022-08-02T10:38:01.539Z,1.48
2022-08-02T10:40:55.951Z,2.38
2022-08-02T10:43:31.883Z,1.90
2022-08-02T10:46:35.089Z,1.90
2022-08-02T10:49:18.448Z,1.92
2022-08-02T10:52:03.228Z,1.70
2022-08-02T10:54:39.562Z,2.17
2022-08-02T10:57:22.845Z,1.58
2022-08-02T10:59:52.224Z,1.67
2022-08-02T11:02:43.306Z,1.52
2022-08-02T11:05:15.731Z,1.75
2022-08-02T11:10:33.792Z,1.67
2022-08-02T11:13:03.627Z,2.08
2022-08-02T11:15:31.289Z,1.73
2022-08-02T11:18:01.264Z,1.50
2022-08-02T11:20:28.435Z,1.92
2022-08-02T11:23:15.811Z,1.40
2022-08-02T11:26:03.105Z,1.42
2022-08-02T11:28:31.369Z,1.20
2022-08-02T11:31:00.296Z,1.27
2022-08-02T11:33:34.411Z,1.45
2022-08-02T11:36:07.102Z,0.88
2022-08-02T11:38:34.352Z,1.13
2022-08-02T11:41:09.983Z,1.05
2022-08-02T11:43:39.038Z,1.38
2022-08-02T11:46:13.443Z,1.30
2022-08-02T11:48:41.656Z,1.25
2022-08-02T11:51:17.068Z,1.40
2022-08-02T11:53:53.262Z,0.80
2022-08-02T11:56:27.969Z,0.95
2022-08-02T11:59:10.712Z,1.23
2022-08-02T12:01:45.704Z,0.73
2022-08-02T12:04:18.483Z,1.48
2022-08-02T12:06:57.437Z,0.98
2022-08-02T12:09:25.279Z,1.25
2022-08-02T12:11:52.298Z,1.08
2022-08-02T12:14:20.036Z,1.67
2022-08-02T12:17:07.120Z,1.02
2022-08-02T12:19:34.718Z,1.02
2022-08-02T12:22:12.375Z,1.58
2022-08-02T12:24:41.872Z,1.63
2022-08-02T12:27:09.789Z,1.00
2022-08-02T12:29:57.961Z,1.80
2022-08-02T12:32:26.462Z,1.10
2022-08-02T12:35:10.321Z,1.15
2022-08-02T12:37:40.789Z,1.38
2022-08-02T12:40:47.118Z,1.52
2022-08-02T12:43:22.239Z,1.50
2022-08-02T12:45:54.232Z,1.30
2022-08-02T12:49:16.562Z,1.27
2022-08-02T12:51:58.999Z,1.30
2022-08-02T12:54:32.535Z,1.63
2022-08-02T12:57:11.623Z,2.03
2022-08-02T12:59:46.645Z,1.17
2022-08-02T13:02:14.696Z,0.80
2022-08-02T13:04:49.878Z,1.17
2022-08-02T13:07:20.441Z,1.20
2022-08-02T13:09:48.666Z,0.88
2022-08-02T13:12:16.494Z,1.05
2022-08-02T13:14:43.750Z,1.05
2022-08-02T13:17:11.747Z,1.15
2022-08-02T13:19:38.914Z,1.00
2022-08-02T13:22:06.479Z,0.90
2022-08-02T13:24:54.975Z,1.30
2022-08-02T13:27:24.551Z,1.10
2022-08-02T13:29:52.126Z,1.35
2022-08-02T13:32:19.587Z,1.67
2022-08-02T13:34:46.810Z,1.10
2022-08-02T13:37:14.090Z,1.05
2022-08-02T13:39:41.378Z,1.27
2022-08-02T13:42:08.468Z,0.82
2022-08-02T13:44:44.082Z,1.50
2022-08-02T13:47:11.566Z,0.90
2022-08-02T13:49:51.212Z,1.35
2022-08-02T13:52:19.213Z,0.93
2022-08-02T13:54:46.084Z,1.35
2022-08-02T13:57:13.146Z,1.10
2022-08-02T13:59:56.729Z,1.23
2022-08-02T14:02:29.193Z,1.05
2022-08-02T14:04:59.465Z,0.98
2022-08-02T14:07:26.461Z,0.82
2022-08-02T14:09:53.275Z,1.17
2022-08-02T14:12:20.221Z,0.70
2022-08-02T14:14:46.961Z,1.58
2022-08-02T14:17:13.933Z,1.10
2022-08-02T14:19:44.275Z,1.30
2022-08-02T14:22:12.506Z,1.17
2022-08-02T14:24:41.579Z,1.27
2022-08-02T14:27:12.066Z,1.20
2022-08-02T14:29:42.241Z,1.55
2022-08-02T14:32:09.330Z,1.50
2022-08-02T14:34:36.543Z,1.10
2022-08-02T14:37:09.948Z,1.45
2022-08-02T14:40:00.314Z,1.70
2022-08-02T14:42:31.355Z,1.77
2022-08-02T14:44:58.764Z,1.45
2022-08-02T14:47:25.709Z,1.50
2022-08-02T14:49:52.686Z,1.42
2022-08-02T14:52:20.867Z,1.23
2022-08-02T14:54:51.409Z,1.40
2022-08-02T14:57:18.674Z,1.27
2022-08-02T14:59:45.728Z,1.67
2022-08-02T15:02:16.319Z,2.05
2022-08-02T15:04:43.957Z,2.00
2022-08-02T15:07:12.191Z,1.98
2022-08-02T15:09:39.541Z,1.90
2022-08-02T15:12:07.802Z,2.10
2022-08-02T15:14:34.684Z,1.95
2022-08-02T15:17:01.649Z,1.83
2022-08-02T15:19:57.720Z,1.67
2022-08-02T15:22:27.378Z,1.90
2022-08-02T15:24:56.481Z,1.67
2022-08-02T15:27:24.702Z,2.00
2022-08-02T15:29:51.819Z,1.85
2022-08-02T15:32:19.849Z,1.58
2022-08-02T15:34:47.878Z,1.25
2022-08-02T15:37:41.620Z,1.60
2022-08-02T15:40:20.355Z,1.65
2022-08-02T15:42:50.837Z,3.08
2022-08-02T15:45:25.807Z,1.58
2022-08-02T15:47:52.966Z,1.80
2022-08-02T15:50:21.055Z,1.95
2022-08-02T15:52:48.042Z,1.67
2022-08-02T15:55:15.013Z,1.45
2022-08-02T15:57:41.991Z,1.38
2022-08-02T16:00:18.421Z,1.25
2022-08-02T16:02:46.832Z,1.88
2022-08-02T16:05:14.540Z,1.67
2022-08-02T16:07:41.464Z,1.45
2022-08-02T16:10:09.012Z,2.15
2022-08-02T16:12:35.930Z,1.75
2022-08-02T16:15:02.894Z,1.73
2022-08-02T16:17:48.733Z,2.42
2022-08-02T16:20:16.497Z,2.47
2022-08-02T16:22:43.308Z,2.17
2022-08-02T16:25:10.793Z,2.38
2022-08-02T16:28:05.852Z,1.92
2022-08-02T16:30:31.211Z,2.13
2022-08-02T16:32:57.980Z,2.10
2022-08-02T16:35:24.736Z,1.80
2022-08-02T16:37:52.177Z,1.67
2022-08-02T16:40:21.062Z,1.42
2022-08-02T16:42:50.205Z,1.48
2022-08-02T16:45:34.966Z,2.05
2022-08-02T16:48:05.478Z,2.63
2022-08-02T16:50:32.700Z,1.67
2022-08-02T16:52:59.541Z,1.67
2022-08-02T16:55:29.106Z,1.77
2022-08-02T16:57:58.567Z,2.30
2022-08-02T17:00:25.694Z,1.55
2022-08-02T17:02:53.293Z,1.70
2022-08-02T17:05:20.994Z,1.50
2022-08-02T17:08:10.452Z,1.90
2022-08-02T17:10:35.039Z,2.05
2022-08-02T17:13:11.403Z,2.08
2022-08-02T17:16:16.005Z,1.77
2022-08-02T17:18:29.661Z,1.42
2022-08-02T17:20:56.581Z,1.70
2022-08-02T17:23:23.407Z,2.03
2022-08-02T17:26:10.229Z,2.20
2022-08-02T17:28:56.547Z,2.20
2022-08-02T17:31:29.624Z,1.95
2022-08-02T17:33:57.091Z,2.03
2022-08-02T17:36:25.753Z,2.40
2022-08-02T17:38:52.536Z,2.50
2022-08-02T17:41:19.277Z,2.45
2022-08-02T17:44:05.429Z,1.73
2022-08-02T17:46:32.340Z,2.28
2022-08-02T17:49:17.745Z,2.25
2022-08-02T17:52:48.752Z,1.80
2022-08-02T17:54:35.190Z,2.83
2022-08-02T17:57:02.505Z,2.35
2022-08-02T17:59:41.729Z,2.33
2022-08-02T18:02:11.130Z,2.40
2022-08-02T18:04:56.590Z,2.45
2022-08-02T18:07:25.404Z,2.17
2022-08-02T18:09:56.997Z,2.63
2022-08-02T18:12:26.701Z,2.20
2022-08-02T18:14:55.298Z,2.47
2022-08-02T18:17:22.367Z,2.10
2022-08-02T18:19:57.252Z,2.00
2022-08-02T18:22:27.198Z,2.30
2022-08-02T18:24:54.596Z,3.03
2022-08-02T18:27:21.600Z,2.58
2022-08-02T18:29:48.822Z,2.50
2022-08-02T18:33:54.249Z,1.95
2022-08-02T18:35:14.401Z,2.30
2022-08-02T18:37:43.857Z,2.33
2022-08-02T18:40:12.792Z,2.33
2022-08-02T18:42:39.773Z,2.05
2022-08-02T18:45:08.014Z,3.33
2022-08-02T18:47:50.890Z,2.65
2022-08-02T18:50:18.850Z,2.70
2022-08-02T18:52:47.813Z,2.47
2022-08-02T18:55:17.276Z,2.40
2022-08-02T18:58:02.201Z,2.47
2022-08-02T19:00:35.542Z,2.53
2022-08-02T19:03:04.515Z,2.55
2022-08-02T19:05:53.699Z,2.70
2022-08-02T19:08:25.616Z,1.95
2022-08-02T19:13:22.698Z,2.47
2022-08-02T19:15:49.741Z,3.17
2022-08-02T19:18:16.585Z,2.33
2022-08-02T19:20:48.207Z,3.15
2022-08-02T19:23:17.256Z,3.83
2022-08-02T19:25:50.175Z,2.58
2022-08-02T19:28:17.382Z,2.55
2022-08-02T19:30:56.468Z,2.55
2022-08-02T19:36:11.677Z,2.85
2022-08-02T19:38:43.878Z,2.63
2022-08-02T19:44:25.150Z,3.10
2022-08-02T19:46:27.332Z,2.90
2022-08-02T19:51:49.455Z,2.00
2022-08-02T19:54:10.929Z,2.58
2022-08-02T19:56:40.436Z,2.13
2022-08-02T19:59:13.878Z,2.30
2022-08-02T20:01:46.405Z,2.65
2022-08-02T20:04:23.514Z,2.72
2022-08-02T20:06:51.052Z,2.80
2022-08-02T20:09:21.545Z,2.38
2022-08-02T20:11:54.422Z,2.53
2022-08-02T20:14:27.663Z,3.28
2022-08-02T20:16:58.162Z,3.13
2022-08-02T20:19:25.233Z,3.08
2022-08-02T20:22:00.096Z,2.00
2022-08-02T20:24:28.306Z,3.10
2022-08-02T20:26:55.664Z,2.97
2022-08-02T20:29:43.269Z,2.45
2022-08-02T20:32:17.140Z,3.38
2022-08-02T20:34:48.608Z,2.90
2022-08-02T20:37:59.978Z,3.42
2022-08-02T20:40:04.408Z,2.05
2022-08-02T20:42:31.902Z,2.08
2022-08-02T20:45:00.197Z,2.72
2022-08-02T20:47:27.830Z,2.17
2022-08-02T20:50:22.701Z,3.08
2022-08-02T20:52:57.849Z,3.10
2022-08-02T20:55:25.188Z,3.88
2022-08-02T20:58:00.353Z,3.17
2022-08-02T21:00:28.481Z,2.58
2022-08-02T21:02:55.678Z,2.40
2022-08-02T21:05:43.332Z,2.45
2022-08-02T21:08:14.105Z,2.97
2022-08-02T21:10:50.302Z,2.47
2022-08-02T21:13:24.082Z,2.38
2022-08-02T21:15:55.768Z,2.67
2022-08-02T21:18:33.824Z,2.50
2022-08-02T21:21:08.641Z,2.95
2022-08-02T21:23:36.702Z,2.42
2022-08-02T21:26:06.655Z,2.90
2022-08-02T21:31:22.743Z,2.88
2022-08-02T21:33:58.490Z,2.13
2022-08-02T21:36:30.945Z,2.60
2022-08-02T21:39:00.106Z,2.20
2022-08-02T21:41:39.692Z,3.03
2022-08-02T21:44:21.649Z,2.10
2022-08-02T21:46:50.925Z,2.53
2022-08-02T21:49:20.038Z,2.65
2022-08-02T21:51:49.520Z,2.80
2022-08-02T21:54:20.408Z,2.15
2022-08-02T21:56:49.532Z,2.15
2022-08-02T21:59:25.372Z,1.83
2022-08-02T22:01:57.022Z,2.13
2022-08-02T22:04:25.126Z,2.88
2022-08-02T22:06:52.705Z,2.60
2022-08-02T22:09:43.340Z,2.50
2022-08-02T22:12:10.252Z,2.30
2022-08-02T22:14:39.930Z,2.70
2022-08-02T22:17:08.843Z,3.45
2022-08-02T22:19:36.245Z,2.67
2022-08-02T22:22:03.137Z,1.73
2022-08-02T22:24:30.583Z,1.85
2022-08-02T22:26:57.973Z,1.85
2022-08-02T22:29:25.153Z,1.60
2022-08-02T22:31:52.449Z,1.92
2022-08-02T22:34:37.202Z,1.88
2022-08-02T22:40:09.268Z,1.88
2022-08-02T22:42:36.675Z,2.08
2022-08-02T22:45:07.553Z,1.80
2022-08-02T22:47:38.932Z,1.85
2022-08-02T22:50:18.252Z,2.65
2022-08-02T22:52:46.883Z,1.67
2022-08-02T22:55:17.908Z,2.38
2022-08-02T22:57:56.691Z,2.25
2022-08-02T22:58:59.791Z,3.05
2022-08-02T22:59:02.908Z,2.75
2022-08-02T23:00:24.980Z,1.38
2022-08-02T23:02:51.914Z,1.90
2022-08-02T23:05:18.759Z,2.45
2022-08-02T23:07:45.552Z,2.80
2022-08-02T23:10:12.420Z,2.40
2022-08-02T23:12:39.164Z,2.53
2022-08-02T23:15:06.533Z,1.63
2022-08-02T23:17:52.876Z,1.95
2022-08-02T23:20:19.941Z,2.53
2022-08-02T23:22:46.671Z,1.90
2022-08-02T23:25:14.669Z,2.00
2022-08-02T23:27:50.754Z,1.80
2022-08-02T23:30:18.465Z,3.75
2022-08-02T23:32:46.825Z,2.45
2022-08-02T23:35:16.575Z,2.78
2022-08-02T23:38:00.172Z,2.05
2022-08-02T23:40:40.653Z,1.75
2022-08-02T23:43:13.893Z,2.03
2022-08-02T23:45:41.701Z,1.88
2022-08-02T23:48:08.456Z,2.30
2022-08-02T23:50:35.224Z,2.70
2022-08-02T23:53:01.987Z,3.45
2022-08-02T23:55:28.756Z,2.08
2022-08-02T23:57:55.560Z,2.17
